sensor_id;sensor_type;location;lat;lon;timestamp;pressure;altitude;pressure_sealevel;temperature;humidity
33845;BME280;20145;43.118;25.694;2022-09-01T00:00:47;99240.94;;;20.15;100.00
33845;BME280;20145;43.118;25.694;2022-09-01T00:03:15;99237.22;;;20.19;99.74
33845;BME280;20145;43.118;25.694;2022-09-01T00:05:41;99239.84;;;20.19;98.19
33845;BME280;20145;43.118;25.694;2022-09-01T00:08:11;99233.59;;;20.22;96.71
33845;BME280;20145;43.118;25.694;2022-09-01T00:10:38;99229.03;;;20.10;97.49
33845;BME280;20145;43.118;25.694;2022-09-01T00:13:04;99226.47;;;20.08;97.54
33845;BME280;20145;43.118;25.694;2022-09-01T00:15:35;99220.28;;;20.09;97.84
33845;BME280;20145;43.118;25.694;2022-09-01T00:18:00;99229.69;;;20.13;97.18
33845;BME280;20145;43.118;25.694;2022-09-01T00:20:26;99221.44;;;20.21;99.53
33845;BME280;20145;43.118;25.694;2022-09-01T00:22:52;99223.94;;;20.22;99.27
33845;BME280;20145;43.118;25.694;2022-09-01T00:25:19;99225.72;;;20.22;99.01
33845;BME280;20145;43.118;25.694;2022-09-01T00:27:46;99226.50;;;20.24;99.08
33845;BME280;20145;43.118;25.694;2022-09-01T00:30:12;99223.78;;;20.25;99.71
33845;BME280;20145;43.118;25.694;2022-09-01T00:32:38;99221.16;;;20.25;98.07
33845;BME280;20145;43.118;25.694;2022-09-01T00:35:04;99218.72;;;20.22;97.45
33845;BME280;20145;43.118;25.694;2022-09-01T00:37:30;99227.34;;;20.24;97.85
33845;BME280;20145;43.118;25.694;2022-09-01T00:39:56;99226.09;;;20.32;97.66
33845;BME280;20145;43.118;25.694;2022-09-01T00:42:22;99220.31;;;20.41;98.87
33845;BME280;20145;43.118;25.694;2022-09-01T00:44:49;99226.41;;;20.41;98.99
33845;BME280;20145;43.118;25.694;2022-09-01T00:47:15;99222.69;;;20.45;98.61
33845;BME280;20145;43.118;25.694;2022-09-01T00:49:46;99230.47;;;20.47;98.31
33845;BME280;20145;43.118;25.694;2022-09-01T00:52:16;99231.41;;;20.46;96.72
33845;BME280;20145;43.118;25.694;2022-09-01T00:54:50;99234.09;;;20.44;98.09
33845;BME280;20145;43.118;25.694;2022-09-01T00:57:17;99228.00;;;20.44;97.68
33845;BME280;20145;43.118;25.694;2022-09-01T00:59:52;99230.56;;;20.45;98.00
33845;BME280;20145;43.118;25.694;2022-09-01T01:02:18;99223.78;;;20.41;98.24
33845;BME280;20145;43.118;25.694;2022-09-01T01:04:44;99217.34;;;20.31;98.00
33845;BME280;20145;43.118;25.694;2022-09-01T01:07:11;99217.69;;;20.25;97.86
33845;BME280;20145;43.118;25.694;2022-09-01T01:09:41;99218.81;;;20.21;98.71
33845;BME280;20145;43.118;25.694;2022-09-01T01:12:09;99231.97;;;20.19;97.55
33845;BME280;20145;43.118;25.694;2022-09-01T01:14:43;99226.81;;;20.02;97.61
33845;BME280;20145;43.118;25.694;2022-09-01T01:17:10;99226.72;;;20.03;97.52
33845;BME280;20145;43.118;25.694;2022-09-01T01:25:38;99223.88;;;19.75;98.30
33845;BME280;20145;43.118;25.694;2022-09-01T01:30:38;99226.41;;;19.59;98.55
33845;BME280;20145;43.118;25.694;2022-09-01T01:33:05;99235.38;;;19.55;98.02
33845;BME280;20145;43.118;25.694;2022-09-01T01:35:30;99236.22;;;19.55;98.21
33845;BME280;20145;43.118;25.694;2022-09-01T01:37:59;99244.00;;;19.57;99.06
33845;BME280;20145;43.118;25.694;2022-09-01T01:40:27;99243.72;;;19.61;98.36
33845;BME280;20145;43.118;25.694;2022-09-01T01:42:54;99247.13;;;19.64;98.61
33845;BME280;20145;43.118;25.694;2022-09-01T01:45:23;99247.94;;;19.66;97.94
33845;BME280;20145;43.118;25.694;2022-09-01T01:47:50;99246.28;;;19.63;96.82
33845;BME280;20145;43.118;25.694;2022-09-01T01:50:28;99246.28;;;19.63;97.21
33845;BME280;20145;43.118;25.694;2022-09-01T01:53:02;99252.16;;;19.68;97.59
33845;BME280;20145;43.118;25.694;2022-09-01T01:55:28;99241.22;;;19.60;95.24
33845;BME280;20145;43.118;25.694;2022-09-01T01:57:56;99246.50;;;19.58;96.04
33845;BME280;20145;43.118;25.694;2022-09-01T02:00:31;99248.47;;;19.55;96.15
33845;BME280;20145;43.118;25.694;2022-09-01T02:02:59;99245.38;;;19.47;95.32
33845;BME280;20145;43.118;25.694;2022-09-01T02:05:31;99237.69;;;19.44;96.17
33845;BME280;20145;43.118;25.694;2022-09-01T02:08:01;99240.75;;;19.52;97.06
33845;BME280;20145;43.118;25.694;2022-09-01T02:10:30;99245.06;;;19.53;97.17
33845;BME280;20145;43.118;25.694;2022-09-01T02:13:01;99247.69;;;19.53;96.22
33845;BME280;20145;43.118;25.694;2022-09-01T02:15:35;99253.84;;;19.52;97.18
33845;BME280;20145;43.118;25.694;2022-09-01T02:18:04;99259.28;;;19.65;98.62
33845;BME280;20145;43.118;25.694;2022-09-01T02:20:30;99256.06;;;19.77;98.07
33845;BME280;20145;43.118;25.694;2022-09-01T02:22:57;99247.81;;;19.85;98.47
33845;BME280;20145;43.118;25.694;2022-09-01T02:25:23;99248.66;;;19.85;97.07
33845;BME280;20145;43.118;25.694;2022-09-01T02:27:48;99252.19;;;19.84;96.93
33845;BME280;20145;43.118;25.694;2022-09-01T02:30:18;99257.59;;;19.81;97.05
33845;BME280;20145;43.118;25.694;2022-09-01T02:32:43;99247.72;;;19.86;96.71
33845;BME280;20145;43.118;25.694;2022-09-01T02:35:09;99240.81;;;19.85;96.37
33845;BME280;20145;43.118;25.694;2022-09-01T02:37:38;99241.81;;;19.82;95.49
33845;BME280;20145;43.118;25.694;2022-09-01T02:40:07;99232.75;;;19.72;96.54
33845;BME280;20145;43.118;25.694;2022-09-01T02:42:35;99226.56;;;19.56;96.71
33845;BME280;20145;43.118;25.694;2022-09-01T02:45:02;99225.38;;;19.46;96.71
33845;BME280;20145;43.118;25.694;2022-09-01T02:47:28;99225.38;;;19.46;96.62
33845;BME280;20145;43.118;25.694;2022-09-01T02:49:53;99215.22;;;19.39;97.11
33845;BME280;20145;43.118;25.694;2022-09-01T02:52:19;99218.91;;;19.35;97.00
33845;BME280;20145;43.118;25.694;2022-09-01T02:54:46;99224.22;;;19.34;97.19
33845;BME280;20145;43.118;25.694;2022-09-01T02:57:13;99226.09;;;19.32;97.55
33845;BME280;20145;43.118;25.694;2022-09-01T02:59:39;99234.09;;;19.29;97.76
33845;BME280;20145;43.118;25.694;2022-09-01T03:02:07;99229.38;;;19.35;97.44
33845;BME280;20145;43.118;25.694;2022-09-01T03:04:33;99229.53;;;19.32;97.76
33845;BME280;20145;43.118;25.694;2022-09-01T03:07:04;99236.22;;;19.38;97.79
33845;BME280;20145;43.118;25.694;2022-09-01T03:09:30;99238.00;;;19.37;97.98
33845;BME280;20145;43.118;25.694;2022-09-01T03:11:57;99245.69;;;19.41;98.19
33845;BME280;20145;43.118;25.694;2022-09-01T03:14:23;99240.53;;;19.39;98.92
33845;BME280;20145;43.118;25.694;2022-09-01T03:16:50;99239.38;;;19.45;98.80
33845;BME280;20145;43.118;25.694;2022-09-01T03:19:17;99240.94;;;19.49;99.19
33845;BME280;20145;43.118;25.694;2022-09-01T03:21:44;99248.63;;;19.52;98.69
33845;BME280;20145;43.118;25.694;2022-09-01T03:24:13;99252.91;;;19.53;99.21
33845;BME280;20145;43.118;25.694;2022-09-01T03:26:40;99256.22;;;19.56;99.19
33845;BME280;20145;43.118;25.694;2022-09-01T03:29:06;99240.44;;;19.58;98.28
33845;BME280;20145;43.118;25.694;2022-09-01T03:31:33;99250.56;;;19.66;98.31
33845;BME280;20145;43.118;25.694;2022-09-01T03:33:59;99253.94;;;19.68;97.87
33845;BME280;20145;43.118;25.694;2022-09-01T03:36:26;99256.91;;;19.60;96.42
33845;BME280;20145;43.118;25.694;2022-09-01T03:38:53;99245.31;;;19.48;96.46
33845;BME280;20145;43.118;25.694;2022-09-01T03:41:21;99247.59;;;19.37;96.76
33845;BME280;20145;43.118;25.694;2022-09-01T03:43:50;99240.63;;;19.20;96.23
33845;BME280;20145;43.118;25.694;2022-09-01T03:46:20;99238.25;;;19.15;95.86
33845;BME280;20145;43.118;25.694;2022-09-01T03:48:51;99244.69;;;19.08;96.14
33845;BME280;20145;43.118;25.694;2022-09-01T03:51:20;99237.31;;;18.99;96.51
33845;BME280;20145;43.118;25.694;2022-09-01T03:53:48;99244.06;;;19.03;97.65
33845;BME280;20145;43.118;25.694;2022-09-01T03:56:14;99244.91;;;19.04;97.31
33845;BME280;20145;43.118;25.694;2022-09-01T03:58:41;99240.56;;;19.04;96.37
33845;BME280;20145;43.118;25.694;2022-09-01T04:01:11;99242.53;;;18.99;96.87
33845;BME280;20145;43.118;25.694;2022-09-01T04:03:38;99250.69;;;19.10;96.33
33845;BME280;20145;43.118;25.694;2022-09-01T04:06:08;99248.47;;;19.20;96.32
33845;BME280;20145;43.118;25.694;2022-09-01T04:08:34;99245.69;;;19.23;96.63
33845;BME280;20145;43.118;25.694;2022-09-01T04:11:03;99254.00;;;19.31;95.90
33845;BME280;20145;43.118;25.694;2022-09-01T04:13:34;99251.16;;;19.36;95.10
33845;BME280;20145;43.118;25.694;2022-09-01T04:16:00;99243.94;;;19.41;95.54
33845;BME280;20145;43.118;25.694;2022-09-01T04:18:26;99253.59;;;19.56;95.18
33845;BME280;20145;43.118;25.694;2022-09-01T04:20:54;99260.63;;;19.73;94.71
33845;BME280;20145;43.118;25.694;2022-09-01T04:26:03;99259.47;;;19.79;93.53
33845;BME280;20145;43.118;25.694;2022-09-01T04:28:44;99271.66;;;19.96;92.34
33845;BME280;20145;43.118;25.694;2022-09-01T04:31:13;99262.22;;;20.09;93.03
33845;BME280;20145;43.118;25.694;2022-09-01T04:33:42;99259.44;;;20.12;93.42
33845;BME280;20145;43.118;25.694;2022-09-01T04:36:36;99250.91;;;20.24;92.60
33845;BME280;20145;43.118;25.694;2022-09-01T04:39:04;99250.50;;;20.32;93.13
33845;BME280;20145;43.118;25.694;2022-09-01T04:41:35;99245.34;;;20.46;93.03
33845;BME280;20145;43.118;25.694;2022-09-01T04:44:03;99254.84;;;20.65;91.75
33845;BME280;20145;43.118;25.694;2022-09-01T04:46:35;99250.25;;;20.84;91.33
33845;BME280;20145;43.118;25.694;2022-09-01T04:49:02;99251.63;;;21.06;90.36
33845;BME280;20145;43.118;25.694;2022-09-01T04:51:32;99246.09;;;21.26;91.45
33845;BME280;20145;43.118;25.694;2022-09-01T04:53:58;99250.00;;;21.49;90.45
33845;BME280;20145;43.118;25.694;2022-09-01T04:56:25;99257.25;;;21.74;89.57
33845;BME280;20145;43.118;25.694;2022-09-01T04:58:52;99255.94;;;21.96;88.72
33845;BME280;20145;43.118;25.694;2022-09-01T05:01:24;99249.44;;;22.16;87.66
33845;BME280;20145;43.118;25.694;2022-09-01T05:03:51;99256.25;;;22.20;86.23
33845;BME280;20145;43.118;25.694;2022-09-01T05:06:27;99254.72;;;22.30;85.17
33845;BME280;20145;43.118;25.694;2022-09-01T05:08:54;99248.41;;;22.33;84.32
33845;BME280;20145;43.118;25.694;2022-09-01T05:11:25;99255.81;;;22.40;85.08
33845;BME280;20145;43.118;25.694;2022-09-01T05:13:51;99263.03;;;22.51;84.85
33845;BME280;20145;43.118;25.694;2022-09-01T05:16:22;99266.38;;;22.67;84.51
33845;BME280;20145;43.118;25.694;2022-09-01T05:18:51;99262.66;;;22.84;82.96
33845;BME280;20145;43.118;25.694;2022-09-01T05:21:20;99260.47;;;22.91;83.58
33845;BME280;20145;43.118;25.694;2022-09-01T05:23:49;99258.16;;;22.86;82.92
33845;BME280;20145;43.118;25.694;2022-09-01T05:26:23;99274.38;;;22.93;83.32
33845;BME280;20145;43.118;25.694;2022-09-01T05:28:52;99270.97;;;22.91;83.10
33845;BME280;20145;43.118;25.694;2022-09-01T05:31:19;99271.78;;;22.79;82.23
33845;BME280;20145;43.118;25.694;2022-09-01T05:33:47;99265.16;;;22.86;83.12
33845;BME280;20145;43.118;25.694;2022-09-01T05:36:16;99263.91;;;22.79;83.02
33845;BME280;20145;43.118;25.694;2022-09-01T05:38:45;99253.41;;;22.91;82.81
33845;BME280;20145;43.118;25.694;2022-09-01T05:41:13;99257.00;;;22.90;82.46
33845;BME280;20145;43.118;25.694;2022-09-01T05:43:41;99253.41;;;22.91;83.51
33845;BME280;20145;43.118;25.694;2022-09-01T05:46:21;99248.88;;;22.93;83.15
33845;BME280;20145;43.118;25.694;2022-09-01T05:48:49;99246.53;;;22.89;84.00
33845;BME280;20145;43.118;25.694;2022-09-01T05:51:18;99249.28;;;22.87;83.80
33845;BME280;20145;43.118;25.694;2022-09-01T05:53:46;99246.16;;;22.95;83.49
33845;BME280;20145;43.118;25.694;2022-09-01T05:56:17;99254.66;;;23.00;83.71
33845;BME280;20145;43.118;25.694;2022-09-01T05:58:44;99254.75;;;22.84;82.77
33845;BME280;20145;43.118;25.694;2022-09-01T06:01:21;99262.66;;;22.84;83.30
33845;BME280;20145;43.118;25.694;2022-09-01T06:03:50;99264.97;;;22.89;85.03
33845;BME280;20145;43.118;25.694;2022-09-01T06:06:21;99271.06;;;23.04;84.81
33845;BME280;20145;43.118;25.694;2022-09-01T06:08:49;99267.69;;;23.02;83.47
33845;BME280;20145;43.118;25.694;2022-09-01T06:11:15;99266.44;;;23.07;83.53
33845;BME280;20145;43.118;25.694;2022-09-01T06:13:43;99259.09;;;23.12;83.72
33845;BME280;20145;43.118;25.694;2022-09-01T06:16:14;99257.75;;;22.92;83.39
33845;BME280;20145;43.118;25.694;2022-09-01T06:18:41;99254.16;;;22.93;84.70
33845;BME280;20145;43.118;25.694;2022-09-01T06:21:09;99256.66;;;22.82;84.95
33845;BME280;20145;43.118;25.694;2022-09-01T06:23:43;99258.22;;;22.85;84.40
33845;BME280;20145;43.118;25.694;2022-09-01T06:26:38;99265.44;;;22.68;83.44
33845;BME280;20145;43.118;25.694;2022-09-01T06:29:07;99264.19;;;22.74;84.22
33845;BME280;20145;43.118;25.694;2022-09-01T06:31:35;99273.38;;;22.81;83.12
33845;BME280;20145;43.118;25.694;2022-09-01T06:34:06;99271.31;;;22.72;83.89
33845;BME280;20145;43.118;25.694;2022-09-01T06:36:35;99261.81;;;22.57;85.39
33845;BME280;20145;43.118;25.694;2022-09-01T06:39:01;99274.63;;;22.61;84.76
33845;BME280;20145;43.118;25.694;2022-09-01T06:41:27;99274.84;;;22.85;85.15
33845;BME280;20145;43.118;25.694;2022-09-01T06:43:54;99269.50;;;22.87;83.89
33845;BME280;20145;43.118;25.694;2022-09-01T06:46:21;99266.94;;;23.00;82.50
33845;BME280;20145;43.118;25.694;2022-09-01T06:48:48;99254.44;;;22.89;82.42
33845;BME280;20145;43.118;25.694;2022-09-01T06:51:16;99272.66;;;23.19;82.40
33845;BME280;20145;43.118;25.694;2022-09-01T06:53:44;99275.50;;;23.16;81.28
33845;BME280;20145;43.118;25.694;2022-09-01T06:56:10;99265.16;;;23.00;78.27
33845;BME280;20145;43.118;25.694;2022-09-01T06:58:39;99269.94;;;22.93;80.88
33845;BME280;20145;43.118;25.694;2022-09-01T07:01:09;99273.91;;;23.01;82.19
33845;BME280;20145;43.118;25.694;2022-09-01T07:03:43;99271.81;;;23.06;82.83
33845;BME280;20145;43.118;25.694;2022-09-01T07:06:09;99281.44;;;23.32;81.30
33845;BME280;20145;43.118;25.694;2022-09-01T07:08:36;99279.78;;;23.31;79.38
33845;BME280;20145;43.118;25.694;2022-09-01T07:11:13;99273.16;;;22.99;81.18
33845;BME280;20145;43.118;25.694;2022-09-01T07:13:42;99274.97;;;23.11;81.87
33845;BME280;20145;43.118;25.694;2022-09-01T07:16:17;99285.13;;;23.17;81.13
33845;BME280;20145;43.118;25.694;2022-09-01T07:18:47;99283.00;;;23.22;80.43
33845;BME280;20145;43.118;25.694;2022-09-01T07:21:12;99288.84;;;23.40;79.48
33845;BME280;20145;43.118;25.694;2022-09-01T07:23:38;99282.19;;;23.47;78.49
33845;BME280;20145;43.118;25.694;2022-09-01T07:26:05;99295.50;;;23.46;78.47
33845;BME280;20145;43.118;25.694;2022-09-01T07:28:31;99285.81;;;23.59;77.52
33845;BME280;20145;43.118;25.694;2022-09-01T07:30:57;99280.66;;;23.70;78.22
33845;BME280;20145;43.118;25.694;2022-09-01T07:33:23;99277.94;;;23.85;77.63
33845;BME280;20145;43.118;25.694;2022-09-01T07:35:50;99276.47;;;23.93;75.72
33845;BME280;20145;43.118;25.694;2022-09-01T07:38:24;99273.81;;;24.06;76.23
33845;BME280;20145;43.118;25.694;2022-09-01T07:40:50;99281.69;;;24.19;74.52
33845;BME280;20145;43.118;25.694;2022-09-01T07:43:23;99281.53;;;24.09;74.33
33845;BME280;20145;43.118;25.694;2022-09-01T07:45:55;99283.31;;;23.96;74.51
33845;BME280;20145;43.118;25.694;2022-09-01T07:48:23;99271.00;;;23.71;76.14
33845;BME280;20145;43.118;25.694;2022-09-01T07:50:52;99277.28;;;23.68;76.08
33845;BME280;20145;43.118;25.694;2022-09-01T07:53:20;99275.00;;;23.76;75.63
33845;BME280;20145;43.118;25.694;2022-09-01T07:55:48;99280.59;;;23.85;75.39
33845;BME280;20145;43.118;25.694;2022-09-01T07:58:17;99281.44;;;23.98;75.15
33845;BME280;20145;43.118;25.694;2022-09-01T08:00:43;99283.72;;;24.02;75.31
33845;BME280;20145;43.118;25.694;2022-09-01T08:03:11;99269.91;;;24.12;73.96
33845;BME280;20145;43.118;25.694;2022-09-01T08:05:37;99265.13;;;24.30;73.75
33845;BME280;20145;43.118;25.694;2022-09-01T08:08:02;99268.50;;;24.44;73.80
33845;BME280;20145;43.118;25.694;2022-09-01T08:10:29;99261.94;;;24.50;73.19
33845;BME280;20145;43.118;25.694;2022-09-01T08:12:55;99255.78;;;24.62;73.16
33845;BME280;20145;43.118;25.694;2022-09-01T08:15:21;99257.03;;;24.69;71.83
33845;BME280;20145;43.118;25.694;2022-09-01T08:17:47;99257.22;;;24.66;71.40
33845;BME280;20145;43.118;25.694;2022-09-01T08:20:12;99257.84;;;24.70;71.81
33845;BME280;20145;43.118;25.694;2022-09-01T08:22:38;99255.78;;;24.86;70.96
33845;BME280;20145;43.118;25.694;2022-09-01T08:25:06;99256.78;;;24.97;70.99
33845;BME280;20145;43.118;25.694;2022-09-01T08:27:33;99257.50;;;24.99;70.25
33845;BME280;20145;43.118;25.694;2022-09-01T08:30:03;99250.78;;;24.95;70.40
33845;BME280;20145;43.118;25.694;2022-09-01T08:32:29;99251.16;;;25.01;69.44
33845;BME280;20145;43.118;25.694;2022-09-01T08:34:55;99252.84;;;25.26;69.85
33845;BME280;20145;43.118;25.694;2022-09-01T08:37:22;99253.25;;;25.44;69.50
33845;BME280;20145;43.118;25.694;2022-09-01T08:39:47;99253.72;;;25.49;68.47
33845;BME280;20145;43.118;25.694;2022-09-01T08:45:22;99249.44;;;25.71;69.06
33845;BME280;20145;43.118;25.694;2022-09-01T08:47:55;99248.50;;;25.72;67.03
33845;BME280;20145;43.118;25.694;2022-09-01T08:50:21;99232.97;;;25.56;66.66
33845;BME280;20145;43.118;25.694;2022-09-01T08:53:02;99236.34;;;25.69;66.74
33845;BME280;20145;43.118;25.694;2022-09-01T08:55:36;99234.41;;;25.60;68.39
33845;BME280;20145;43.118;25.694;2022-09-01T08:58:05;99226.88;;;25.67;68.28
33845;BME280;20145;43.118;25.694;2022-09-01T09:00:41;99225.78;;;25.80;67.82
33845;BME280;20145;43.118;25.694;2022-09-01T09:06:22;99221.03;;;25.86;67.18
33845;BME280;20145;43.118;25.694;2022-09-01T09:08:53;99214.41;;;25.91;66.74
33845;BME280;20145;43.118;25.694;2022-09-01T09:16:22;99212.22;;;25.96;64.85
33845;BME280;20145;43.118;25.694;2022-09-01T09:18:55;99211.25;;;26.09;65.95
33845;BME280;20145;43.118;25.694;2022-09-01T09:21:40;99204.38;;;26.17;64.07
33845;BME280;20145;43.118;25.694;2022-09-01T09:24:09;99202.44;;;26.31;64.36
33845;BME280;20145;43.118;25.694;2022-09-01T09:26:37;99197.25;;;26.40;64.70
33845;BME280;20145;43.118;25.694;2022-09-01T09:29:03;99200.25;;;26.47;64.82
33845;BME280;20145;43.118;25.694;2022-09-01T09:33:58;99190.22;;;26.62;63.37
33845;BME280;20145;43.118;25.694;2022-09-01T09:36:33;99184.56;;;26.66;63.58
33845;BME280;20145;43.118;25.694;2022-09-01T09:39:11;99184.69;;;26.65;62.71
33845;BME280;20145;43.118;25.694;2022-09-01T09:41:39;99183.47;;;26.69;62.68
33845;BME280;20145;43.118;25.694;2022-09-01T09:46:44;99180.84;;;26.90;61.97
33845;BME280;20145;43.118;25.694;2022-09-01T09:49:16;99177.56;;;26.98;62.04
33845;BME280;20145;43.118;25.694;2022-09-01T09:51:47;99169.94;;;27.04;61.41
33845;BME280;20145;43.118;25.694;2022-09-01T09:54:25;99171.63;;;27.05;59.57
33845;BME280;20145;43.118;25.694;2022-09-01T09:57:12;99166.53;;;27.13;60.39
33845;BME280;20145;43.118;25.694;2022-09-01T09:59:42;99164.31;;;27.19;59.44
33845;BME280;20145;43.118;25.694;2022-09-01T10:07:46;99157.94;;;27.21;58.23
33845;BME280;20145;43.118;25.694;2022-09-01T10:10:30;99145.31;;;27.34;58.42
33845;BME280;20145;43.118;25.694;2022-09-01T10:12:57;99149.97;;;27.42;58.32
33845;BME280;20145;43.118;25.694;2022-09-01T10:15:28;99152.91;;;27.49;58.16
33845;BME280;20145;43.118;25.694;2022-09-01T10:17:59;99146.41;;;27.63;58.25
33845;BME280;20145;43.118;25.694;2022-09-01T10:20:26;99148.94;;;27.64;54.41
33845;BME280;20145;43.118;25.694;2022-09-01T10:22:53;99146.13;;;27.56;54.21
33845;BME280;20145;43.118;25.694;2022-09-01T10:25:25;99137.91;;;27.59;55.92
33845;BME280;20145;43.118;25.694;2022-09-01T10:28:01;99134.44;;;27.68;56.12
33845;BME280;20145;43.118;25.694;2022-09-01T10:30:31;99134.75;;;27.75;56.63
33845;BME280;20145;43.118;25.694;2022-09-01T10:32:59;99132.94;;;27.75;57.39
33845;BME280;20145;43.118;25.694;2022-09-01T10:37:52;99130.50;;;27.93;57.37
33845;BME280;20145;43.118;25.694;2022-09-01T10:42:49;99126.75;;;28.06;56.55
33845;BME280;20145;43.118;25.694;2022-09-01T10:45:31;99121.19;;;28.18;56.28
33845;BME280;20145;43.118;25.694;2022-09-01T10:48:31;99126.50;;;28.28;55.90
33845;BME280;20145;43.118;25.694;2022-09-01T10:56:45;99119.91;;;28.13;52.03
33845;BME280;20145;43.118;25.694;2022-09-01T11:05:09;99111.88;;;28.53;52.94
33845;BME280;20145;43.118;25.694;2022-09-01T11:13:10;99101.66;;;28.68;49.38
33845;BME280;20145;43.118;25.694;2022-09-01T11:15:42;99088.94;;;28.62;50.65
33845;BME280;20145;43.118;25.694;2022-09-01T11:18:14;99086.44;;;28.51;51.98
33845;BME280;20145;43.118;25.694;2022-09-01T11:20:40;99081.81;;;28.62;50.54
33845;BME280;20145;43.118;25.694;2022-09-01T11:23:12;99076.38;;;28.64;51.23
33845;BME280;20145;43.118;25.694;2022-09-01T11:25:46;99079.69;;;28.76;50.10
33845;BME280;20145;43.118;25.694;2022-09-01T11:42:18;99063.75;;;29.05;48.11
33845;BME280;20145;43.118;25.694;2022-09-01T11:45:06;99055.47;;;29.08;44.99
33845;BME280;20145;43.118;25.694;2022-09-01T11:47:44;99055.31;;;29.00;47.98
33845;BME280;20145;43.118;25.694;2022-09-01T11:50:29;99048.47;;;29.07;45.19
33845;BME280;20145;43.118;25.694;2022-09-01T11:52:59;99046.31;;;29.20;46.62
33845;BME280;20145;43.118;25.694;2022-09-01T11:57:58;99037.41;;;29.11;46.02
33845;BME280;20145;43.118;25.694;2022-09-01T12:00:35;99050.94;;;29.18;43.11
33845;BME280;20145;43.118;25.694;2022-09-01T12:03:23;99047.44;;;29.18;45.09
33845;BME280;20145;43.118;25.694;2022-09-01T12:05:55;99044.69;;;29.37;44.33
33845;BME280;20145;43.118;25.694;2022-09-01T12:08:25;99042.69;;;29.49;44.30
33845;BME280;20145;43.118;25.694;2022-09-01T12:11:05;99045.59;;;29.55;43.83
33845;BME280;20145;43.118;25.694;2022-09-01T12:13:32;99044.13;;;29.71;44.88
33845;BME280;20145;43.118;25.694;2022-09-01T12:16:01;99031.06;;;29.77;43.66
33845;BME280;20145;43.118;25.694;2022-09-01T12:18:36;99036.09;;;29.81;43.75
33845;BME280;20145;43.118;25.694;2022-09-01T12:24:22;99032.97;;;29.85;43.71
33845;BME280;20145;43.118;25.694;2022-09-01T12:26:50;99027.66;;;29.85;43.57
33845;BME280;20145;43.118;25.694;2022-09-01T12:29:19;99025.97;;;29.84;41.98
33845;BME280;20145;43.118;25.694;2022-09-01T12:31:47;99025.97;;;29.84;42.38
33845;BME280;20145;43.118;25.694;2022-09-01T12:37:09;99026.66;;;29.86;43.78
33845;BME280;20145;43.118;25.694;2022-09-01T12:39:43;99022.44;;;29.93;43.93
33845;BME280;20145;43.118;25.694;2022-09-01T12:44:51;99023.03;;;30.05;43.18
33845;BME280;20145;43.118;25.694;2022-09-01T12:52:28;99018.59;;;30.14;43.87
33845;BME280;20145;43.118;25.694;2022-09-01T12:55:15;99020.44;;;30.13;44.34
33845;BME280;20145;43.118;25.694;2022-09-01T12:57:53;99012.75;;;30.10;43.46
33845;BME280;20145;43.118;25.694;2022-09-01T13:00:21;99016.25;;;30.11;43.17
33845;BME280;20145;43.118;25.694;2022-09-01T13:03:10;99013.81;;;30.17;43.15
33845;BME280;20145;43.118;25.694;2022-09-01T13:05:40;99017.16;;;30.19;43.29
33845;BME280;20145;43.118;25.694;2022-09-01T13:08:16;99009.56;;;30.25;44.08
33845;BME280;20145;43.118;25.694;2022-09-01T13:13:10;99018.00;;;30.64;42.98
33845;BME280;20145;43.118;25.694;2022-09-01T13:15:38;99027.47;;;30.84;42.18
33845;BME280;20145;43.118;25.694;2022-09-01T13:18:04;99018.28;;;31.05;42.81
33845;BME280;20145;43.118;25.694;2022-09-01T13:20:31;99018.69;;;31.18;42.94
33845;BME280;20145;43.118;25.694;2022-09-01T13:22:57;99017.88;;;31.34;42.93
33845;BME280;20145;43.118;25.694;2022-09-01T13:25:23;99026.13;;;31.41;40.73
33845;BME280;20145;43.118;25.694;2022-09-01T13:27:49;99027.63;;;31.43;40.92
33845;BME280;20145;43.118;25.694;2022-09-01T13:30:19;99028.78;;;31.41;41.17
33845;BME280;20145;43.118;25.694;2022-09-01T13:32:46;99034.63;;;31.44;41.35
33845;BME280;20145;43.118;25.694;2022-09-01T13:35:13;99039.72;;;31.29;41.21
33845;BME280;20145;43.118;25.694;2022-09-01T13:37:40;99057.16;;;31.16;42.55
33845;BME280;20145;43.118;25.694;2022-09-01T13:40:06;99064.34;;;30.71;46.50
33845;BME280;20145;43.118;25.694;2022-09-01T13:42:33;99058.75;;;30.02;49.17
33845;BME280;20145;43.118;25.694;2022-09-01T13:44:58;99078.72;;;28.86;53.52
33845;BME280;20145;43.118;25.694;2022-09-01T13:47:25;99045.63;;;27.84;57.25
33845;BME280;20145;43.118;25.694;2022-09-01T13:49:53;99051.75;;;26.82;61.46
33845;BME280;20145;43.118;25.694;2022-09-01T13:52:19;99054.66;;;26.26;63.75
33845;BME280;20145;43.118;25.694;2022-09-01T13:54:47;99049.06;;;25.65;66.97
33845;BME280;20145;43.118;25.694;2022-09-01T13:57:15;99058.31;;;25.59;68.04
33845;BME280;20145;43.118;25.694;2022-09-01T14:00:01;99074.56;;;25.43;68.54
33845;BME280;20145;43.118;25.694;2022-09-01T14:02:26;99085.47;;;25.27;69.92
33845;BME280;20145;43.118;25.694;2022-09-01T14:04:52;99071.44;;;25.15;71.13
33845;BME280;20145;43.118;25.694;2022-09-01T14:07:17;99059.97;;;24.81;77.09
33845;BME280;20145;43.118;25.694;2022-09-01T14:09:44;99064.97;;;24.38;81.81
33845;BME280;20145;43.118;25.694;2022-09-01T14:12:10;99053.44;;;23.79;81.44
33845;BME280;20145;43.118;25.694;2022-09-01T14:14:36;99068.75;;;23.62;84.01
33845;BME280;20145;43.118;25.694;2022-09-01T14:17:02;99084.28;;;23.41;86.81
33845;BME280;20145;43.118;25.694;2022-09-01T14:19:28;99078.81;;;23.05;87.40
33845;BME280;20145;43.118;25.694;2022-09-01T14:21:54;99091.94;;;22.80;89.51
33845;BME280;20145;43.118;25.694;2022-09-01T14:24:19;99105.19;;;22.65;90.51
33845;BME280;20145;43.118;25.694;2022-09-01T14:26:46;99109.41;;;22.14;90.74
33845;BME280;20145;43.118;25.694;2022-09-01T14:29:12;99099.66;;;21.74;88.28